ZSAM

Xiamen Gaoqi International Airport

Xiamen, China
TAF ZSAM 201503Z 2018/2118 12004MPS 8000 SCT040 TX28/2106Z TN20/2021Z
Issued Valid From Valid To
Apr-20 @ 15:03 UTC
(4 hours ago)
Apr-20 @ 18:00 UTC
(36 minutes ago)
Apr-21 @ 18:00 UTC
(in 23 hours)
Apr-20 @ 18:00 to Apr-21 @ 18:00
TAF ZSAM 201503Z 2018/2118 12004MPS 8000 SCT040 TX28/2106Z TN20/2021Z
Wind Visibility Clouds
120° at 8 knots 7,998 meters
  • Scattered at 4,000' AGL
TAF ZSAM 201503Z 2018/2118 12004MPS 8000 SCT040 TX28/2106Z TN20/2021Z
Issued Apr-20 @ 15:03 UTC
(4 hours ago)
Valid From Apr-20 @ 18:00 UTC
(36 minutes ago)
Valid To Apr-21 @ 18:00 UTC
(in 23 hours)
Apr-20 @ 18:00 - Apr-21 @ 18:00
Wind Visibility
120° at 8 knots 7,998 meters
Clouds
  • Scattered at 4,000' AGL